createdAt,value
2022-11-20T00:01:24.808Z,-0.41
2022-11-20T00:03:55.872Z,-0.45
2022-11-20T00:06:23.498Z,-0.54
2022-11-20T00:08:51.070Z,-0.48
2022-11-20T00:11:20.504Z,-0.52
2022-11-20T00:13:49.167Z,-0.58
2022-11-20T00:16:18.747Z,-0.52
2022-11-20T00:18:46.302Z,-0.57
2022-11-20T00:21:24.132Z,-0.51
2022-11-20T00:23:54.892Z,-0.58
2022-11-20T00:26:23.394Z,-0.67
2022-11-20T00:28:55.764Z,-0.68
2022-11-20T00:31:22.522Z,-0.59
2022-11-20T00:33:49.319Z,-0.60
2022-11-20T00:36:19.261Z,-0.65
2022-11-20T00:38:46.612Z,-0.66
2022-11-20T00:41:16.973Z,-0.68
2022-11-20T00:43:43.954Z,-0.70
2022-11-20T00:46:14.404Z,-0.70
2022-11-20T00:48:41.302Z,-0.74
2022-11-20T00:51:08.093Z,-0.70
2022-11-20T00:53:34.624Z,-0.73
2022-11-20T00:56:04.299Z,-0.74
2022-11-20T00:58:38.861Z,-0.83
2022-11-20T01:01:14.418Z,-0.92
2022-11-20T01:03:49.718Z,-0.93
2022-11-20T01:06:22.299Z,-0.90
2022-11-20T01:08:51.505Z,-0.90
2022-11-20T01:11:21.284Z,-0.99
2022-11-20T01:13:49.372Z,-1.05
2022-11-20T01:16:34.373Z,-1.07
2022-11-20T01:19:02.423Z,-1.04
2022-11-20T01:21:32.976Z,-1.05
2022-11-20T01:24:00.046Z,-1.06
2022-11-20T01:26:29.685Z,-0.95
2022-11-20T01:28:57.211Z,-0.95
2022-11-20T01:31:26.437Z,-0.80
2022-11-20T01:33:55.450Z,-0.92
2022-11-20T01:36:24.083Z,-0.99
2022-11-20T01:38:58.932Z,-0.99
2022-11-20T01:41:45.539Z,-0.98
2022-11-20T01:44:16.034Z,-1.04
2022-11-20T01:47:06.019Z,-1.02
2022-11-20T01:49:43.714Z,-1.15
2022-11-20T01:52:20.495Z,-1.19
2022-11-20T01:54:52.906Z,-1.10
2022-11-20T01:57:20.756Z,-1.13
2022-11-20T01:59:55.914Z,-1.14
2022-11-20T02:02:22.904Z,-1.12
2022-11-20T02:04:52.602Z,-1.13
2022-11-20T02:07:20.731Z,-1.14
2022-11-20T02:09:47.160Z,-1.26
2022-11-20T02:12:33.622Z,-1.27
2022-11-20T02:15:00.188Z,-1.26
2022-11-20T02:17:26.944Z,-1.32
2022-11-20T02:19:53.475Z,-1.34
2022-11-20T02:22:48.012Z,-1.39
2022-11-20T02:25:15.945Z,-1.38
2022-11-20T02:27:42.394Z,-1.35
2022-11-20T02:30:11.790Z,-1.41
2022-11-20T02:32:39.396Z,-1.36
2022-11-20T02:35:18.682Z,-1.38
2022-11-20T02:37:46.221Z,-1.42
2022-11-20T02:40:12.676Z,-1.29
2022-11-20T02:42:39.253Z,-1.29
2022-11-20T02:45:06.491Z,-1.35
2022-11-20T02:47:33.361Z,-1.34
2022-11-20T02:49:59.832Z,-1.50
2022-11-20T02:52:26.847Z,-1.49
2022-11-20T02:54:53.821Z,-1.37
2022-11-20T02:57:20.310Z,-1.40
2022-11-20T02:59:46.740Z,-1.38
2022-11-20T03:02:13.288Z,-1.38
2022-11-20T03:04:39.702Z,-1.39
2022-11-20T03:07:06.285Z,-1.52
2022-11-20T03:09:32.767Z,-1.54
2022-11-20T03:11:59.199Z,-1.53
2022-11-20T03:14:25.680Z,-1.40
2022-11-20T03:16:52.144Z,-1.39
2022-11-20T03:19:18.799Z,-1.65
2022-11-20T03:21:45.475Z,-1.82
2022-11-20T03:24:11.927Z,-1.89
2022-11-20T03:26:40.412Z,-1.84
2022-11-20T03:29:07.191Z,-1.82
2022-11-20T03:31:36.669Z,-1.82
2022-11-20T03:34:04.673Z,-1.82
2022-11-20T03:36:31.605Z,-1.74
2022-11-20T03:38:58.509Z,-1.78
2022-11-20T03:41:28.221Z,-1.81
2022-11-20T03:44:00.026Z,-1.84
2022-11-20T03:46:27.780Z,-2.00
2022-11-20T03:48:54.818Z,-1.96
2022-11-20T03:51:29.340Z,-2.10
2022-11-20T03:53:58.003Z,-2.11
2022-11-20T03:56:27.917Z,-2.06
2022-11-20T03:58:54.839Z,-2.01
2022-11-20T04:01:24.675Z,-2.07
2022-11-20T04:03:53.365Z,-2.08
2022-11-20T04:06:25.899Z,-2.09
2022-11-20T04:08:53.936Z,-2.15
2022-11-20T04:11:23.398Z,-2.09
2022-11-20T04:13:52.760Z,-2.06
2022-11-20T04:16:19.708Z,-2.04
2022-11-20T04:18:46.259Z,-2.06
2022-11-20T04:21:13.067Z,-2.10
2022-11-20T04:23:39.866Z,-2.15
2022-11-20T04:26:11.588Z,-2.16
2022-11-20T04:28:38.948Z,-2.18
2022-11-20T04:31:11.726Z,-2.22
2022-11-20T04:33:38.848Z,-2.19
2022-11-20T04:36:16.794Z,-2.07
2022-11-20T04:38:43.815Z,-2.10
2022-11-20T04:41:18.724Z,-2.11
2022-11-20T04:43:53.223Z,-2.14
2022-11-20T04:46:21.648Z,-2.19
2022-11-20T04:48:48.745Z,-2.14
2022-11-20T04:51:15.189Z,-2.10
2022-11-20T04:53:42.506Z,-2.15
2022-11-20T04:56:11.101Z,-2.08
2022-11-20T04:58:38.879Z,-2.00
2022-11-20T05:01:14.460Z,-1.93
2022-11-20T05:03:42.638Z,-2.14
2022-11-20T05:06:11.169Z,-2.20
2022-11-20T05:08:37.607Z,-2.17
2022-11-20T05:11:12.572Z,-2.17
2022-11-20T05:13:39.477Z,-2.21
2022-11-20T05:16:11.695Z,-2.23
2022-11-20T05:18:39.950Z,-2.20
2022-11-20T05:21:07.020Z,-2.25
2022-11-20T05:23:35.124Z,-2.23
2022-11-20T05:26:02.353Z,-2.19
2022-11-20T05:28:30.267Z,-2.24
2022-11-20T05:30:57.025Z,-2.17
2022-11-20T05:33:24.685Z,-2.18
2022-11-20T05:35:51.125Z,-2.28
2022-11-20T05:38:17.537Z,-2.29
2022-11-20T05:40:44.026Z,-2.25
2022-11-20T05:43:10.600Z,-2.14
2022-11-20T05:45:37.056Z,-2.17
2022-11-20T05:48:03.800Z,-2.17
2022-11-20T05:50:30.838Z,-2.19
2022-11-20T05:53:00.530Z,-2.43
2022-11-20T05:55:27.757Z,-2.48
2022-11-20T05:57:55.715Z,-2.56
2022-11-20T06:00:22.349Z,-2.64
2022-11-20T06:02:48.913Z,-2.63
2022-11-20T06:05:15.431Z,-2.57
2022-11-20T06:07:41.957Z,-2.52
2022-11-20T06:10:08.868Z,-2.45
2022-11-20T06:12:35.383Z,-2.42
2022-11-20T06:15:01.937Z,-2.29
2022-11-20T06:17:28.369Z,-2.36
2022-11-20T06:19:54.921Z,-2.52
2022-11-20T06:22:21.417Z,-2.47
2022-11-20T06:24:48.353Z,-2.55
2022-11-20T06:27:14.798Z,-2.53
2022-11-20T06:29:41.226Z,-2.59
2022-11-20T06:32:07.753Z,-2.54
2022-11-20T06:34:34.321Z,-2.57
2022-11-20T06:37:00.845Z,-2.50
2022-11-20T06:39:27.286Z,-2.47
2022-11-20T06:41:58.576Z,-2.44
2022-11-20T06:44:25.587Z,-2.45
2022-11-20T06:46:51.996Z,-2.38
2022-11-20T06:49:18.440Z,-2.37
2022-11-20T06:51:44.926Z,-2.43
2022-11-20T06:54:11.324Z,-2.45
2022-11-20T06:56:37.761Z,-2.47
2022-11-20T06:59:08.325Z,-2.43
2022-11-20T07:01:35.906Z,-2.42
2022-11-20T07:04:02.979Z,-2.37
2022-11-20T07:06:29.532Z,-2.44
2022-11-20T07:08:55.964Z,-2.47
2022-11-20T07:11:22.415Z,-2.42
2022-11-20T07:13:48.863Z,-2.41
2022-11-20T07:16:16.380Z,-2.35
2022-11-20T07:18:47.361Z,-2.35
2022-11-20T07:21:16.646Z,-2.22
2022-11-20T07:23:43.044Z,-2.13
2022-11-20T07:26:11.637Z,-2.14
2022-11-20T07:28:38.894Z,-2.11
2022-11-20T07:31:07.643Z,-2.07
2022-11-20T07:33:34.303Z,-2.10
2022-11-20T07:36:01.420Z,-2.00
2022-11-20T07:38:28.299Z,-1.91
2022-11-20T07:40:56.679Z,-1.88
2022-11-20T07:43:23.079Z,-1.83
2022-11-20T07:45:49.551Z,-1.76
2022-11-20T07:48:16.064Z,-1.63
2022-11-20T07:50:42.680Z,-1.60
2022-11-20T07:53:09.079Z,-1.47
2022-11-20T07:55:35.533Z,-1.42
2022-11-20T07:58:02.007Z,-1.37
2022-11-20T08:00:28.777Z,-1.27
2022-11-20T08:02:55.521Z,-1.26
2022-11-20T08:05:21.926Z,-1.24
2022-11-20T08:07:48.584Z,-1.20
2022-11-20T08:10:17.171Z,-1.07
2022-11-20T08:13:07.385Z,-0.88
2022-11-20T08:15:34.306Z,-0.66
2022-11-20T08:18:29.947Z,-0.52
2022-11-20T08:20:55.246Z,-0.36
2022-11-20T08:23:23.758Z,-0.32
2022-11-20T08:25:51.939Z,-0.17
2022-11-20T08:28:21.839Z,-0.16
2022-11-20T08:30:50.895Z,-0.21
2022-11-20T08:33:18.387Z,-0.19
2022-11-20T08:35:45.153Z,-0.12
2022-11-20T08:38:11.691Z,0.01
2022-11-20T08:40:38.153Z,0.05
2022-11-20T08:43:05.258Z,0.18
2022-11-20T08:45:34.697Z,0.30
2022-11-20T08:48:03.534Z,0.42
2022-11-20T08:50:32.587Z,0.48
2022-11-20T08:53:06.393Z,0.43
2022-11-20T08:55:33.391Z,0.45
2022-11-20T08:58:04.614Z,0.48
2022-11-20T09:00:31.073Z,0.49
2022-11-20T09:02:58.398Z,0.54
2022-11-20T09:05:24.912Z,0.65
2022-11-20T09:07:51.320Z,0.70
2022-11-20T09:10:25.255Z,0.74
2022-11-20T09:12:56.050Z,0.73
2022-11-20T09:15:23.357Z,0.82
2022-11-20T09:18:01.718Z,0.93
2022-11-20T09:20:29.999Z,1.10
2022-11-20T09:22:57.701Z,1.20
2022-11-20T09:25:24.250Z,1.32
2022-11-20T09:27:56.973Z,1.34
2022-11-20T09:30:23.627Z,1.41
2022-11-20T09:32:50.104Z,1.44
2022-11-20T09:35:17.024Z,1.46
2022-11-20T09:37:43.476Z,1.58
2022-11-20T09:40:21.051Z,1.63
2022-11-20T09:43:13.369Z,1.63
2022-11-20T09:45:57.696Z,1.65
2022-11-20T09:48:55.071Z,1.70
2022-11-20T09:51:42.699Z,1.82
2022-11-20T09:54:20.936Z,1.79
2022-11-20T09:57:01.559Z,1.88
2022-11-20T09:59:41.388Z,2.00
2022-11-20T10:02:19.040Z,2.01
2022-11-20T10:04:52.290Z,2.06
2022-11-20T10:07:57.496Z,2.00
2022-11-20T10:10:44.091Z,2.10
2022-11-20T10:13:16.805Z,2.10
2022-11-20T10:16:31.288Z,2.16
2022-11-20T10:19:22.489Z,2.24
2022-11-20T10:22:18.735Z,2.36
2022-11-20T10:24:54.029Z,2.36
2022-11-20T10:27:35.374Z,2.39
2022-11-20T10:30:08.897Z,2.41
2022-11-20T10:32:57.047Z,2.45
2022-11-20T10:35:29.417Z,2.39
2022-11-20T10:38:00.647Z,2.44
2022-11-20T10:40:39.062Z,2.52
2022-11-20T10:43:14.644Z,2.63
2022-11-20T10:46:04.126Z,2.72
2022-11-20T10:48:32.300Z,2.77
2022-11-20T10:51:31.437Z,2.75
2022-11-20T10:54:25.889Z,2.85
2022-11-20T10:56:54.459Z,2.93
2022-11-20T10:59:34.927Z,3.04
2022-11-20T11:02:03.343Z,3.06
2022-11-20T11:04:34.304Z,3.17
2022-11-20T11:07:11.506Z,3.24
2022-11-20T11:09:43.914Z,3.29
2022-11-20T11:12:11.593Z,3.42
2022-11-20T11:14:53.330Z,3.45
2022-11-20T11:17:48.897Z,3.47
2022-11-20T11:20:21.184Z,3.50
2022-11-20T11:22:50.944Z,3.59
2022-11-20T11:25:37.303Z,3.69
2022-11-20T11:28:06.390Z,3.74
2022-11-20T11:30:44.398Z,3.79
2022-11-20T11:33:13.324Z,3.81
2022-11-20T11:35:51.128Z,3.80
2022-11-20T11:38:23.834Z,3.80
2022-11-20T11:40:50.564Z,3.78
2022-11-20T11:43:45.133Z,3.84
2022-11-20T11:46:33.438Z,3.95
2022-11-20T11:49:01.408Z,3.98
2022-11-20T11:51:46.371Z,4.00
2022-11-20T11:54:26.423Z,4.02
2022-11-20T11:56:53.831Z,4.05
2022-11-20T11:59:43.005Z,4.10
2022-11-20T12:02:25.186Z,4.14
2022-11-20T12:05:14.691Z,4.14
2022-11-20T12:07:48.320Z,4.13
2022-11-20T12:10:22.729Z,4.12
2022-11-20T12:13:22.153Z,4.05
2022-11-20T12:15:49.192Z,4.10
2022-11-20T12:18:21.480Z,4.15
2022-11-20T12:21:40.857Z,4.16
2022-11-20T12:24:13.115Z,4.13
2022-11-20T12:26:51.467Z,4.11
2022-11-20T12:29:33.010Z,4.09
2022-11-20T12:32:30.839Z,4.15
2022-11-20T12:35:31.444Z,4.18
2022-11-20T12:38:27.293Z,4.17
2022-11-20T12:41:05.949Z,4.11
2022-11-20T12:44:03.059Z,4.10
2022-11-20T12:46:38.453Z,4.09
2022-11-20T12:49:31.520Z,4.08
2022-11-20T12:52:21.540Z,4.00
2022-11-20T12:55:03.177Z,4.00
2022-11-20T12:57:45.305Z,4.06
2022-11-20T13:00:23.189Z,4.07
2022-11-20T13:03:14.534Z,4.10
2022-11-20T13:06:19.340Z,4.07
2022-11-20T13:08:54.192Z,4.16
2022-11-20T13:11:32.490Z,4.18
2022-11-20T13:14:01.869Z,4.16
2022-11-20T13:16:39.476Z,4.16
2022-11-20T13:19:10.820Z,4.18
2022-11-20T13:21:40.600Z,4.19
2022-11-20T13:24:31.205Z,4.26
2022-11-20T13:27:03.875Z,4.24
2022-11-20T13:29:31.013Z,4.22
2022-11-20T13:32:14.842Z,4.20
2022-11-20T13:34:56.566Z,4.19
2022-11-20T13:37:36.142Z,4.25
2022-11-20T13:40:08.304Z,4.33
2022-11-20T13:42:44.226Z,4.22
2022-11-20T13:45:26.251Z,4.20
2022-11-20T13:47:54.503Z,4.12
2022-11-20T13:50:42.109Z,4.17
2022-11-20T13:53:22.724Z,4.21
2022-11-20T13:56:30.560Z,4.24
2022-11-20T13:59:29.804Z,4.29
2022-11-20T14:01:56.475Z,4.30
2022-11-20T14:04:39.011Z,4.33
2022-11-20T14:07:07.426Z,4.35
2022-11-20T14:09:35.166Z,4.33
2022-11-20T14:12:03.522Z,4.33
2022-11-20T14:14:31.962Z,4.36
2022-11-20T14:17:34.970Z,4.32
2022-11-20T14:20:07.770Z,4.31
2022-11-20T14:22:34.206Z,4.32
2022-11-20T14:25:18.009Z,4.30
2022-11-20T14:27:48.816Z,4.26
2022-11-20T14:30:18.332Z,4.24
2022-11-20T14:32:46.334Z,4.17
2022-11-20T14:35:35.308Z,4.15
2022-11-20T14:38:03.376Z,4.21
2022-11-20T14:40:31.102Z,4.21
2022-11-20T14:42:59.644Z,4.18
2022-11-20T14:45:27.156Z,4.17
2022-11-20T14:47:57.596Z,4.13
2022-11-20T14:50:29.128Z,4.11
2022-11-20T14:52:59.551Z,4.10
2022-11-20T14:55:38.178Z,4.11
2022-11-20T14:58:22.495Z,4.13
2022-11-20T15:01:15.377Z,4.15
2022-11-20T15:03:42.250Z,4.10
2022-11-20T15:06:12.383Z,3.98
2022-11-20T15:08:38.913Z,3.97
2022-11-20T15:11:19.063Z,3.98
2022-11-20T15:13:45.601Z,4.05
2022-11-20T15:16:20.583Z,4.04
2022-11-20T15:18:47.789Z,3.95
2022-11-20T15:21:20.485Z,3.96
2022-11-20T15:23:46.933Z,4.02
2022-11-20T15:26:19.851Z,3.99
2022-11-20T15:28:51.373Z,4.01
2022-11-20T15:31:21.000Z,4.05
2022-11-20T15:33:47.714Z,4.00
2022-11-20T15:36:14.327Z,4.04
2022-11-20T15:38:40.856Z,4.11
2022-11-20T15:41:08.020Z,4.14
2022-11-20T15:43:35.023Z,4.07
2022-11-20T15:46:04.552Z,4.07
2022-11-20T15:48:35.820Z,4.10
2022-11-20T15:51:11.283Z,4.16
2022-11-20T15:53:38.943Z,4.20
2022-11-20T15:56:05.802Z,4.16
2022-11-20T15:58:32.340Z,4.12
2022-11-20T16:00:59.160Z,4.11
2022-11-20T16:03:25.639Z,4.13
2022-11-20T16:05:52.060Z,4.15
2022-11-20T16:08:18.538Z,4.20
2022-11-20T16:10:45.012Z,4.25
2022-11-20T16:13:35.690Z,4.26
2022-11-20T16:16:09.006Z,4.26
2022-11-20T16:18:35.841Z,4.24
2022-11-20T16:21:03.260Z,4.31
2022-11-20T16:23:29.722Z,4.24
2022-11-20T16:25:56.284Z,4.29
2022-11-20T16:28:22.811Z,4.30
2022-11-20T16:30:49.240Z,4.29
2022-11-20T16:33:18.266Z,4.32
2022-11-20T16:35:45.235Z,4.35
2022-11-20T16:38:11.864Z,4.34
2022-11-20T16:40:38.367Z,4.34
2022-11-20T16:43:14.584Z,4.35
2022-11-20T16:45:43.471Z,4.37
2022-11-20T16:48:14.631Z,4.44
2022-11-20T16:50:50.103Z,4.48
2022-11-20T16:53:18.464Z,4.53
2022-11-20T16:55:45.389Z,4.58
2022-11-20T16:58:12.674Z,4.65
2022-11-20T17:00:46.910Z,4.71
2022-11-20T17:03:18.045Z,4.73
2022-11-20T17:05:44.497Z,4.68
2022-11-20T17:08:10.942Z,4.69
2022-11-20T17:10:37.395Z,4.65
2022-11-20T17:13:03.870Z,4.61
2022-11-20T17:15:31.497Z,4.68
2022-11-20T17:17:57.993Z,4.69
2022-11-20T17:20:24.616Z,4.71
2022-11-20T17:22:51.040Z,4.76
2022-11-20T17:25:17.498Z,4.76
2022-11-20T17:27:43.962Z,4.75
2022-11-20T17:30:10.576Z,4.68
2022-11-20T17:32:37.033Z,4.71
2022-11-20T17:35:04.123Z,4.60
2022-11-20T17:37:30.650Z,4.61
2022-11-20T17:39:57.156Z,4.69
2022-11-20T17:42:29.807Z,4.66
2022-11-20T17:44:58.905Z,4.68
2022-11-20T17:47:25.967Z,4.67
2022-11-20T17:49:53.588Z,4.69
2022-11-20T17:52:20.144Z,4.72
2022-11-20T17:54:46.632Z,4.68
2022-11-20T17:57:31.702Z,4.69
2022-11-20T17:59:58.201Z,4.66
2022-11-20T18:02:25.037Z,4.60
2022-11-20T18:04:51.540Z,4.63
2022-11-20T18:07:18.022Z,4.69
2022-11-20T18:09:44.774Z,4.72
2022-11-20T18:12:11.227Z,4.75
2022-11-20T18:14:37.712Z,4.78
2022-11-20T18:17:07.316Z,4.72
2022-11-20T18:19:41.185Z,4.70
2022-11-20T18:22:16.567Z,4.63
2022-11-20T18:24:43.267Z,4.60
2022-11-20T18:27:15.963Z,4.60
2022-11-20T18:29:42.611Z,4.59
2022-11-20T18:32:09.045Z,4.67
2022-11-20T18:34:35.497Z,4.61
2022-11-20T18:37:02.027Z,4.55
2022-11-20T18:39:28.589Z,4.46
2022-11-20T18:42:13.457Z,4.53
2022-11-20T18:44:51.915Z,4.62
2022-11-20T18:47:36.036Z,4.61
2022-11-20T18:50:04.902Z,4.61
2022-11-20T18:52:40.055Z,4.54
2022-11-20T18:55:07.355Z,4.55
2022-11-20T18:57:34.311Z,4.55
2022-11-20T19:00:06.419Z,4.55
2022-11-20T19:02:41.063Z,4.54
2022-11-20T19:05:10.189Z,4.59
2022-11-20T19:07:36.891Z,4.44
2022-11-20T19:10:04.555Z,4.34
2022-11-20T19:12:31.268Z,4.44
2022-11-20T19:14:57.952Z,4.44
2022-11-20T19:17:24.524Z,4.26
2022-11-20T19:19:51.113Z,4.26
2022-11-20T19:22:17.660Z,4.36
2022-11-20T19:24:44.073Z,4.39
2022-11-20T19:27:10.547Z,4.32
2022-11-20T19:29:37.004Z,4.21
2022-11-20T19:32:04.525Z,4.22
2022-11-20T19:34:31.077Z,4.27
2022-11-20T19:36:57.549Z,4.29
2022-11-20T19:39:24.237Z,4.25
2022-11-20T19:41:50.918Z,4.22
2022-11-20T19:44:17.880Z,4.21
2022-11-20T19:46:44.833Z,4.22
2022-11-20T19:49:13.254Z,4.22
2022-11-20T19:51:45.569Z,4.22
2022-11-20T19:54:12.127Z,4.18
2022-11-20T19:56:38.576Z,4.24
2022-11-20T19:59:05.622Z,4.24
2022-11-20T20:01:32.559Z,4.21
2022-11-20T20:04:05.228Z,4.25
2022-11-20T20:06:34.561Z,4.19
2022-11-20T20:09:12.704Z,4.28
2022-11-20T20:11:40.385Z,4.26
2022-11-20T20:14:10.175Z,4.28
2022-11-20T20:16:36.731Z,4.33
2022-11-20T20:19:04.743Z,4.23
2022-11-20T20:21:33.280Z,4.24
2022-11-20T20:24:00.116Z,4.22
2022-11-20T20:26:29.396Z,4.29
2022-11-20T20:28:56.237Z,4.29
2022-11-20T20:31:25.271Z,4.29
2022-11-20T20:33:52.304Z,4.24
2022-11-20T20:36:20.594Z,4.26
2022-11-20T20:38:47.883Z,4.26
2022-11-20T20:41:18.366Z,4.25
2022-11-20T20:44:03.277Z,4.25
2022-11-20T20:46:29.760Z,4.22
2022-11-20T20:48:56.276Z,4.18
2022-11-20T20:51:23.790Z,4.24
2022-11-20T20:53:50.744Z,4.23
2022-11-20T20:56:18.256Z,4.24
2022-11-20T20:58:44.700Z,4.20
2022-11-20T21:01:16.728Z,4.24
2022-11-20T21:03:43.540Z,4.27
2022-11-20T21:06:11.305Z,4.25
2022-11-20T21:08:40.729Z,4.27
2022-11-20T21:11:13.434Z,4.23
2022-11-20T21:13:42.890Z,4.24
2022-11-20T21:16:10.082Z,4.26
2022-11-20T21:18:36.592Z,4.33
2022-11-20T21:21:26.638Z,4.29
2022-11-20T21:23:53.550Z,4.25
2022-11-20T21:26:21.022Z,4.26
2022-11-20T21:28:47.788Z,4.29
2022-11-20T21:31:16.923Z,4.29
2022-11-20T21:33:47.501Z,4.32
2022-11-20T21:36:16.604Z,4.35
2022-11-20T21:38:44.435Z,4.28
2022-11-20T21:41:12.250Z,4.28
2022-11-20T21:43:39.068Z,4.28
2022-11-20T21:46:11.310Z,4.31
2022-11-20T21:48:39.862Z,4.33
2022-11-20T21:51:08.561Z,4.26
2022-11-20T21:53:35.714Z,4.24
2022-11-20T21:56:04.228Z,4.30
2022-11-20T21:58:31.176Z,4.33
2022-11-20T22:00:58.164Z,4.31
2022-11-20T22:03:24.665Z,4.36
2022-11-20T22:05:58.588Z,4.36
2022-11-20T22:08:26.360Z,4.30
2022-11-20T22:10:57.376Z,4.36
2022-11-20T22:13:43.952Z,4.33
2022-11-20T22:16:10.609Z,4.39
2022-11-20T22:18:41.396Z,4.40
2022-11-20T22:21:07.960Z,4.41
2022-11-20T22:23:35.348Z,4.42
2022-11-20T22:26:13.019Z,4.40
2022-11-20T22:28:40.416Z,4.42
2022-11-20T22:31:09.634Z,4.44
2022-11-20T22:33:37.958Z,4.43
2022-11-20T22:36:16.494Z,4.40
2022-11-20T22:38:43.626Z,4.41
2022-11-20T22:41:21.416Z,4.43
2022-11-20T22:43:48.650Z,4.47
2022-11-20T22:46:17.101Z,4.48
2022-11-20T22:48:49.248Z,4.49
2022-11-20T22:51:17.022Z,4.41
2022-11-20T22:53:44.055Z,4.41
2022-11-20T22:56:12.570Z,4.37
2022-11-20T22:58:41.110Z,4.42
2022-11-20T23:01:35.001Z,4.42
2022-11-20T23:04:03.772Z,4.49
2022-11-20T23:06:34.239Z,4.48
2022-11-20T23:09:01.690Z,4.47
2022-11-20T23:11:30.066Z,4.40
2022-11-20T23:14:04.928Z,4.38
2022-11-20T23:16:32.513Z,4.35
2022-11-20T23:19:10.630Z,4.33
2022-11-20T23:21:39.392Z,4.34
2022-11-20T23:24:06.589Z,4.34
2022-11-20T23:26:36.407Z,4.35
2022-11-20T23:29:04.150Z,4.31
2022-11-20T23:31:34.983Z,4.32
2022-11-20T23:34:01.459Z,4.39
2022-11-20T23:36:27.995Z,4.43
2022-11-20T23:38:54.446Z,4.40
2022-11-20T23:41:20.923Z,4.40
2022-11-20T23:43:47.451Z,4.35
2022-11-20T23:46:16.807Z,4.37
2022-11-20T23:48:45.086Z,4.43
2022-11-20T23:51:11.994Z,4.39
2022-11-20T23:53:38.600Z,4.36
2022-11-20T23:56:06.140Z,4.38
2022-11-20T23:58:37.848Z,4.41
